createdAt,value
2019-02-27T00:02:36.090Z,103.43
2019-02-27T00:08:15.901Z,110.93
2019-02-27T00:10:44.705Z,111.57
2019-02-27T00:13:13.533Z,113.50
2019-02-27T00:15:42.327Z,110.57
2019-02-27T00:21:10.173Z,117.17
2019-02-27T00:23:36.396Z,113.50
2019-02-27T00:26:08.805Z,118.57
2019-02-27T00:28:35.723Z,110.77
2019-02-27T00:31:04.602Z,110.63
2019-02-27T00:33:33.464Z,105.60
2019-02-27T00:36:02.162Z,125.73
2019-02-27T00:38:31.023Z,107.83
2019-02-27T00:40:59.801Z,115.60
2019-02-27T00:43:29.089Z,122.60
2019-02-27T00:45:58.179Z,130.93
2019-02-27T00:48:26.937Z,116.83
2019-02-27T00:50:55.655Z,119.60
2019-02-27T00:53:25.147Z,127.57
2019-02-27T00:58:26.812Z,130.47
2019-02-27T01:00:54.696Z,128.73
2019-02-27T01:03:25.982Z,117.83
2019-02-27T01:08:48.987Z,134.53
2019-02-27T01:11:18.431Z,118.23
2019-02-27T01:16:17.207Z,123.07
2019-02-27T01:21:19.086Z,132.07
2019-02-27T01:26:15.594Z,124.50
2019-02-27T01:28:45.473Z,130.17
2019-02-27T01:31:14.704Z,119.83
2019-02-27T01:33:43.456Z,121.40
2019-02-27T01:36:12.125Z,130.47
2019-02-27T01:38:40.936Z,117.03
2019-02-27T01:41:09.666Z,115.00
2019-02-27T01:43:40.061Z,112.87
2019-02-27T01:46:08.879Z,129.97
2019-02-27T01:48:42.562Z,116.53
2019-02-27T01:51:08.132Z,117.07
2019-02-27T01:53:37.930Z,110.50
2019-02-27T01:56:07.410Z,110.20
2019-02-27T01:58:36.117Z,109.23
2019-02-27T02:01:44.591Z,129.80
2019-02-27T02:04:13.338Z,116.43
2019-02-27T02:06:42.038Z,116.63
2019-02-27T02:09:52.135Z,128.97
2019-02-27T02:15:28.885Z,114.97
2019-02-27T02:18:36.237Z,118.27
2019-02-27T02:24:42.296Z,130.60
2019-02-27T02:33:42.994Z,102.17
2019-02-27T02:36:50.336Z,107.80
2019-02-27T02:39:57.644Z,99.77
2019-02-27T02:43:06.321Z,110.47
2019-02-27T02:46:13.572Z,113.23
2019-02-27T02:49:22.147Z,118.47
2019-02-27T02:55:20.163Z,112.70
2019-02-27T02:58:28.767Z,112.77
2019-02-27T03:01:37.289Z,112.10
2019-02-27T03:04:47.979Z,116.67
2019-02-27T03:07:53.737Z,114.30
2019-02-27T03:11:02.296Z,118.70
2019-02-27T03:14:17.256Z,111.40
2019-02-27T03:17:20.012Z,106.47
2019-02-27T03:20:27.283Z,110.50
2019-02-27T03:23:35.884Z,121.30
2019-02-27T03:26:43.358Z,112.23
2019-02-27T03:29:53.408Z,103.37
2019-02-27T03:33:02.330Z,117.77
2019-02-27T03:36:09.637Z,115.40
2019-02-27T03:39:17.044Z,104.90
2019-02-27T03:42:24.279Z,106.80
2019-02-27T03:45:31.843Z,118.83
2019-02-27T03:52:00.482Z,97.80
2019-02-27T03:55:06.403Z,107.80
2019-02-27T03:58:13.655Z,116.07
2019-02-27T04:01:22.274Z,104.03
2019-02-27T04:04:30.551Z,116.80
2019-02-27T04:07:38.743Z,116.80
2019-02-27T04:10:07.593Z,108.47
2019-02-27T04:12:36.327Z,101.10
2019-02-27T04:17:54.497Z,96.43
2019-02-27T04:20:23.208Z,108.30
2019-02-27T04:22:53.703Z,105.87
2019-02-27T04:25:22.491Z,100.47
2019-02-27T04:27:55.178Z,97.80
2019-02-27T04:30:21.816Z,108.17
2019-02-27T04:32:50.500Z,94.07
2019-02-27T04:35:19.243Z,97.43
2019-02-27T04:37:47.910Z,91.97
2019-02-27T04:40:16.873Z,88.70
2019-02-27T04:42:45.537Z,98.57
2019-02-27T04:45:14.349Z,98.03
2019-02-27T04:47:43.019Z,96.33
2019-02-27T04:50:11.919Z,86.20
2019-02-27T04:52:40.606Z,103.83
2019-02-27T04:55:09.269Z,121.40
2019-02-27T04:57:37.731Z,100.30
2019-02-27T05:00:46.209Z,94.60
2019-02-27T05:03:14.986Z,99.47
2019-02-27T05:05:43.666Z,101.63
2019-02-27T05:08:12.355Z,100.70
2019-02-27T05:10:41.271Z,105.43
2019-02-27T05:13:10.029Z,98.93
2019-02-27T05:15:39.464Z,96.70
2019-02-27T05:18:08.897Z,104.10
2019-02-27T05:20:37.471Z,98.33
2019-02-27T05:23:06.476Z,85.70
2019-02-27T05:25:35.150Z,88.27
2019-02-27T05:28:03.816Z,95.70
2019-02-27T05:30:32.527Z,92.63
2019-02-27T05:33:02.115Z,92.90
2019-02-27T05:35:31.756Z,97.63
2019-02-27T05:41:08.644Z,95.80
2019-02-27T05:43:56.480Z,87.07
2019-02-27T05:46:25.154Z,95.77
2019-02-27T05:48:53.990Z,93.13
2019-02-27T05:51:22.884Z,100.07
2019-02-27T05:53:51.593Z,90.90
2019-02-27T05:56:20.294Z,85.50
2019-02-27T05:58:48.951Z,87.63
2019-02-27T06:01:17.783Z,92.00
2019-02-27T06:03:49.451Z,82.23
2019-02-27T06:08:53.038Z,75.67
2019-02-27T06:11:21.776Z,71.40
2019-02-27T06:13:50.441Z,78.30
2019-02-27T06:16:19.207Z,67.10
2019-02-27T06:18:47.931Z,66.77
2019-02-27T06:21:16.671Z,74.43
2019-02-27T06:23:45.385Z,73.30
2019-02-27T06:26:14.160Z,74.43
2019-02-27T06:28:43.005Z,63.73
2019-02-27T06:34:00.930Z,73.10
2019-02-27T06:36:29.665Z,71.93
2019-02-27T06:39:00.451Z,72.83
2019-02-27T06:41:28.891Z,63.87
2019-02-27T06:46:55.007Z,82.80
2019-02-27T06:49:23.850Z,66.83
2019-02-27T06:51:52.551Z,69.20
2019-02-27T06:54:21.288Z,65.80
2019-02-27T06:56:49.917Z,73.10
2019-02-27T06:59:18.813Z,74.90
2019-02-27T07:01:48.101Z,77.40
2019-02-27T07:09:47.434Z,84.20
2019-02-27T07:12:16.460Z,67.80
2019-02-27T07:14:45.467Z,56.30
2019-02-27T07:17:14.307Z,62.73
2019-02-27T07:19:42.960Z,57.23
2019-02-27T07:22:12.637Z,62.87
2019-02-27T07:24:42.172Z,71.90
2019-02-27T07:27:10.936Z,69.57
2019-02-27T07:29:39.633Z,65.30
2019-02-27T07:32:08.335Z,59.10
2019-02-27T07:37:26.511Z,77.93
2019-02-27T07:39:55.748Z,64.53
2019-02-27T07:42:24.572Z,59.20
2019-02-27T07:44:53.251Z,65.93
2019-02-27T07:47:22.005Z,67.90
2019-02-27T07:49:50.666Z,62.27
2019-02-27T07:52:19.364Z,68.43
2019-02-27T07:54:48.110Z,59.10
2019-02-27T07:57:16.765Z,54.87
2019-02-27T07:59:45.789Z,56.63
2019-02-27T08:02:14.480Z,56.60
2019-02-27T08:04:43.143Z,66.13
2019-02-27T08:07:12.419Z,69.27
2019-02-27T08:10:04.544Z,57.20
2019-02-27T08:12:32.282Z,60.23
2019-02-27T08:15:01.031Z,61.70
2019-02-27T08:20:21.462Z,54.87
2019-02-27T08:22:50.092Z,63.90
2019-02-27T08:28:15.866Z,57.53
2019-02-27T08:30:44.593Z,66.27
2019-02-27T08:33:15.215Z,66.23
2019-02-27T08:38:19.283Z,65.73
2019-02-27T08:40:48.009Z,56.50
2019-02-27T08:43:16.718Z,63.23
2019-02-27T08:45:45.463Z,73.07
2019-02-27T08:48:16.909Z,60.23
2019-02-27T08:53:13.558Z,62.93
2019-02-27T08:55:42.251Z,59.30
2019-02-27T08:58:11.053Z,58.90
2019-02-27T09:00:39.772Z,61.80
2019-02-27T09:06:09.691Z,71.20
2019-02-27T09:08:43.259Z,59.97
2019-02-27T09:11:08.824Z,66.10
2019-02-27T09:13:37.508Z,71.97
2019-02-27T09:16:06.148Z,74.63
2019-02-27T09:18:36.446Z,66.57
2019-02-27T09:21:05.309Z,65.73
2019-02-27T09:23:34.188Z,70.87
2019-02-27T09:26:03.578Z,60.63
2019-02-27T09:31:04.307Z,62.00
2019-02-27T09:33:38.587Z,65.73
2019-02-27T09:38:38.705Z,61.40
2019-02-27T09:41:12.193Z,79.20
2019-02-27T09:43:37.556Z,63.60
2019-02-27T09:46:06.308Z,58.83
2019-02-27T09:48:35.024Z,59.97
2019-02-27T09:51:03.674Z,65.57
2019-02-27T09:53:33.954Z,64.43
2019-02-27T09:56:02.769Z,64.03
2019-02-27T09:58:31.379Z,55.20
2019-02-27T10:01:20.852Z,55.57
2019-02-27T10:03:52.051Z,58.57
2019-02-27T10:06:19.970Z,61.73
2019-02-27T10:08:48.642Z,52.73
2019-02-27T10:14:04.821Z,72.23
2019-02-27T10:16:34.855Z,62.00
2019-02-27T10:19:03.888Z,57.03
2019-02-27T10:21:32.770Z,52.17
2019-02-27T10:24:04.356Z,57.83
2019-02-27T10:26:31.965Z,53.20
2019-02-27T10:29:00.520Z,59.20
2019-02-27T10:31:29.028Z,57.93
2019-02-27T10:33:57.711Z,59.43
2019-02-27T10:36:26.395Z,51.70
2019-02-27T10:38:55.050Z,61.00
2019-02-27T10:41:23.641Z,55.10
2019-02-27T10:43:54.022Z,53.60
2019-02-27T10:46:23.770Z,59.97
2019-02-27T10:51:28.221Z,61.73
2019-02-27T10:53:56.879Z,53.17
2019-02-27T10:56:25.442Z,48.70
2019-02-27T10:58:54.041Z,52.63
2019-02-27T11:01:22.629Z,48.33
2019-02-27T11:03:51.308Z,52.80
2019-02-27T11:06:19.835Z,48.53
2019-02-27T11:08:48.429Z,45.30
2019-02-27T11:11:17.076Z,48.00
2019-02-27T11:13:45.561Z,48.17
2019-02-27T11:16:15.522Z,47.90
2019-02-27T11:18:44.561Z,52.77
2019-02-27T11:21:13.117Z,45.77
2019-02-27T11:23:41.775Z,45.50
2019-02-27T11:26:10.401Z,54.43
2019-02-27T11:28:38.995Z,49.80
2019-02-27T11:31:47.440Z,49.20
2019-02-27T11:34:16.227Z,47.50
2019-02-27T11:36:46.211Z,44.27
2019-02-27T11:39:15.267Z,42.97
2019-02-27T11:41:46.083Z,43.80
2019-02-27T11:44:14.435Z,47.90
2019-02-27T11:46:44.624Z,42.90
2019-02-27T11:49:13.278Z,46.20
2019-02-27T11:51:41.866Z,44.50
2019-02-27T11:54:10.654Z,45.83
2019-02-27T11:56:39.264Z,46.00
2019-02-27T11:59:10.343Z,50.60
2019-02-27T12:01:38.142Z,47.37
2019-02-27T12:04:06.788Z,47.73
2019-02-27T12:06:35.514Z,39.97
2019-02-27T12:11:58.570Z,42.30
2019-02-27T12:14:27.354Z,42.00
2019-02-27T12:16:55.962Z,45.53
2019-02-27T12:19:24.834Z,47.63
2019-02-27T12:24:42.436Z,42.93
2019-02-27T12:27:24.450Z,39.73
2019-02-27T12:29:41.899Z,43.27
2019-02-27T12:32:10.583Z,43.80
2019-02-27T12:34:39.284Z,41.20
2019-02-27T12:37:16.387Z,42.23
2019-02-27T12:39:38.726Z,42.63
2019-02-27T12:42:07.838Z,43.37
2019-02-27T12:44:37.627Z,44.27
2019-02-27T12:47:06.326Z,35.10
2019-02-27T12:49:34.823Z,35.60
2019-02-27T12:52:03.479Z,44.60
2019-02-27T12:54:32.445Z,36.57
2019-02-27T12:57:01.224Z,38.90
2019-02-27T12:59:30.767Z,38.53
2019-02-27T13:02:08.109Z,47.23
2019-02-27T13:04:30.544Z,36.63
2019-02-27T13:06:59.230Z,32.13
2019-02-27T13:09:47.290Z,39.43
2019-02-27T13:12:17.356Z,42.90
2019-02-27T13:14:46.379Z,37.30
2019-02-27T13:17:15.070Z,37.73
2019-02-27T13:19:43.723Z,41.17
2019-02-27T13:22:12.355Z,38.83
2019-02-27T13:24:40.933Z,39.47
2019-02-27T13:27:09.949Z,42.80
2019-02-27T13:29:39.744Z,42.23
2019-02-27T13:32:08.179Z,39.90
2019-02-27T13:34:37.714Z,34.07
2019-02-27T13:37:06.927Z,34.03
2019-02-27T13:39:36.529Z,33.07
2019-02-27T13:42:45.010Z,36.27
2019-02-27T13:45:53.466Z,30.30
2019-02-27T13:48:22.099Z,25.40
2019-02-27T13:50:50.677Z,30.00
2019-02-27T13:53:25.788Z,35.50
2019-02-27T13:55:49.800Z,25.60
2019-02-27T13:58:18.528Z,24.70
2019-02-27T14:00:47.157Z,27.93
2019-02-27T14:06:47.416Z,25.43
2019-02-27T14:09:15.237Z,26.50
2019-02-27T14:11:43.892Z,30.93
2019-02-27T14:14:15.102Z,26.50
2019-02-27T14:16:43.009Z,24.20
2019-02-27T14:19:11.582Z,27.50
2019-02-27T14:21:40.374Z,27.40
2019-02-27T14:24:08.938Z,27.30
2019-02-27T14:26:38.253Z,27.40
2019-02-27T14:29:08.038Z,27.13
2019-02-27T14:31:36.674Z,28.10
2019-02-27T14:34:06.113Z,30.67
2019-02-27T14:36:34.659Z,27.90
2019-02-27T14:39:03.311Z,30.93
2019-02-27T14:41:32.081Z,29.50
2019-02-27T14:44:00.759Z,30.47
2019-02-27T14:46:29.303Z,35.30
2019-02-27T14:48:58.162Z,31.57
2019-02-27T14:51:26.692Z,29.77
2019-02-27T14:53:55.906Z,49.23
2019-02-27T14:56:25.506Z,30.90
2019-02-27T14:58:56.546Z,36.80
2019-02-27T15:01:24.371Z,29.57
2019-02-27T15:03:52.999Z,28.17
2019-02-27T15:06:21.654Z,34.63
2019-02-27T15:08:57.774Z,37.53
2019-02-27T15:11:20.519Z,30.30
2019-02-27T15:13:49.307Z,31.37
2019-02-27T15:16:17.856Z,31.23
2019-02-27T15:18:46.362Z,36.63
2019-02-27T15:21:14.876Z,34.07
2019-02-27T15:23:43.443Z,35.43
2019-02-27T15:26:13.689Z,30.90
2019-02-27T15:28:42.213Z,30.47
2019-02-27T15:31:10.680Z,39.30
2019-02-27T15:33:39.233Z,34.37
2019-02-27T15:36:08.095Z,29.43
2019-02-27T15:38:36.677Z,34.33
2019-02-27T15:41:05.632Z,34.77
2019-02-27T15:43:35.362Z,35.47
2019-02-27T15:46:03.845Z,39.40
2019-02-27T15:48:32.318Z,31.47
2019-02-27T15:51:00.725Z,34.20
2019-02-27T15:53:29.315Z,32.30
2019-02-27T15:55:57.834Z,36.27
2019-02-27T15:58:28.035Z,32.13
2019-02-27T16:00:56.919Z,33.10
2019-02-27T16:06:20.179Z,35.17
2019-02-27T16:08:49.007Z,35.90
2019-02-27T16:11:18.406Z,31.00
2019-02-27T16:13:47.250Z,30.00
2019-02-27T16:16:15.929Z,37.00
2019-02-27T16:18:44.977Z,32.07
2019-02-27T16:21:13.757Z,29.30
2019-02-27T16:23:42.533Z,29.33
2019-02-27T16:26:11.249Z,36.20
2019-02-27T16:28:39.867Z,27.40
2019-02-27T16:31:08.810Z,37.07
2019-02-27T16:33:37.701Z,35.33
2019-02-27T16:36:06.353Z,31.13
2019-02-27T16:38:34.995Z,34.73
2019-02-27T16:43:52.742Z,40.30
2019-02-27T16:46:22.824Z,36.50
2019-02-27T16:48:51.880Z,35.40
2019-02-27T16:51:20.763Z,38.97
2019-02-27T16:53:52.335Z,37.17
2019-02-27T16:56:19.887Z,30.70
2019-02-27T16:58:48.789Z,32.60
2019-02-27T17:01:18.926Z,34.80
2019-02-27T17:03:52.585Z,26.97
2019-02-27T17:06:18.400Z,33.17
2019-02-27T17:08:47.135Z,30.57
2019-02-27T17:11:15.699Z,31.07
2019-02-27T17:13:46.987Z,30.00
2019-02-27T17:16:15.182Z,32.40
2019-02-27T17:18:43.794Z,33.73
2019-02-27T17:21:12.467Z,32.93
2019-02-27T17:23:43.271Z,38.30
2019-02-27T17:26:11.391Z,35.00
2019-02-27T17:29:22.836Z,32.47
2019-02-27T17:34:20.155Z,40.57
2019-02-27T17:36:49.285Z,34.07
2019-02-27T17:39:18.090Z,34.03
2019-02-27T17:41:46.976Z,39.43
2019-02-27T17:44:15.818Z,38.80
2019-02-27T17:47:03.807Z,29.47
2019-02-27T17:49:32.541Z,37.00
2019-02-27T17:57:25.008Z,30.63
2019-02-27T17:59:52.592Z,29.43
2019-02-27T18:02:21.217Z,32.13
2019-02-27T18:04:53.064Z,32.87
2019-02-27T18:07:20.198Z,26.63
2019-02-27T18:09:48.712Z,35.53
2019-02-27T18:12:17.439Z,37.47
2019-02-27T18:14:46.998Z,30.53
2019-02-27T18:19:52.218Z,42.73
2019-02-27T18:22:20.727Z,30.03
2019-02-27T18:24:49.182Z,29.70
2019-02-27T18:27:17.910Z,34.70
2019-02-27T18:29:46.500Z,30.17
2019-02-27T18:32:15.016Z,35.00
2019-02-27T18:34:43.576Z,33.90
2019-02-27T18:37:12.198Z,27.30
2019-02-27T18:39:40.759Z,25.27
2019-02-27T18:42:09.430Z,32.77
2019-02-27T18:44:38.368Z,30.70
2019-02-27T18:47:08.303Z,27.77
2019-02-27T18:49:37.262Z,31.33
2019-02-27T18:52:06.618Z,27.47
2019-02-27T18:54:36.018Z,28.80
2019-02-27T18:57:04.543Z,25.97
2019-02-27T18:59:33.184Z,30.63
2019-02-27T19:02:01.813Z,32.10
2019-02-27T19:04:35.013Z,29.60
2019-02-27T19:07:00.692Z,30.57
2019-02-27T19:09:32.143Z,30.83
2019-02-27T19:11:59.567Z,39.10
2019-02-27T19:14:28.042Z,34.37
2019-02-27T19:16:56.751Z,33.00
2019-02-27T19:19:25.276Z,41.80
2019-02-27T19:24:29.510Z,34.37
2019-02-27T19:26:58.010Z,33.67
2019-02-27T19:29:26.673Z,38.37
2019-02-27T19:31:55.320Z,37.00
2019-02-27T19:34:24.158Z,36.83
2019-02-27T19:36:52.795Z,36.20
2019-02-27T19:39:22.470Z,42.17
2019-02-27T19:41:51.722Z,33.97
2019-02-27T19:44:20.772Z,33.63
2019-02-27T19:46:49.477Z,36.23
2019-02-27T19:49:18.350Z,34.50
2019-02-27T19:51:46.948Z,32.67
2019-02-27T19:54:18.422Z,35.73
2019-02-27T19:56:55.817Z,34.57
2019-02-27T19:59:24.866Z,32.70
2019-02-27T20:01:54.461Z,27.40
2019-02-27T20:04:23.024Z,32.43
2019-02-27T20:06:51.536Z,31.60
2019-02-27T20:09:20.549Z,36.27
2019-02-27T20:11:50.429Z,31.37
2019-02-27T20:14:19.250Z,31.80
2019-02-27T20:16:47.776Z,35.47
2019-02-27T20:19:22.339Z,29.90
2019-02-27T20:21:46.610Z,32.43
2019-02-27T20:24:15.162Z,32.70
2019-02-27T20:26:44.846Z,27.40
2019-02-27T20:32:03.572Z,30.00
2019-02-27T20:34:32.073Z,31.40
2019-02-27T20:37:03.311Z,32.77
2019-02-27T20:39:30.912Z,30.87
2019-02-27T20:47:29.938Z,29.87
2019-02-27T20:49:58.472Z,34.40
2019-02-27T20:52:27.109Z,28.97
2019-02-27T20:54:58.819Z,30.00
2019-02-27T20:57:25.969Z,30.30
2019-02-27T21:00:00.665Z,29.50
2019-02-27T21:02:24.835Z,31.87
2019-02-27T21:04:53.355Z,34.33
2019-02-27T21:07:22.475Z,26.77
2019-02-27T21:09:52.126Z,28.03
2019-02-27T21:12:20.639Z,29.50
2019-02-27T21:14:49.283Z,31.53
2019-02-27T21:17:20.870Z,33.50
2019-02-27T21:19:48.093Z,26.77
2019-02-27T21:22:16.840Z,32.63
2019-02-27T21:24:45.437Z,24.10
2019-02-27T21:27:34.011Z,29.27
2019-02-27T21:30:02.745Z,25.47
2019-02-27T21:32:33.192Z,30.23
2019-02-27T21:35:01.780Z,31.97
2019-02-27T21:37:30.536Z,26.70
2019-02-27T21:40:02.037Z,28.83
2019-02-27T21:42:29.669Z,27.63
2019-02-27T21:45:03.112Z,30.50
2019-02-27T21:47:28.848Z,24.03
2019-02-27T21:49:57.742Z,25.50
2019-02-27T21:52:26.337Z,31.50
2019-02-27T21:54:54.795Z,26.57
2019-02-27T21:57:25.475Z,30.20
2019-02-27T21:59:53.614Z,24.73
2019-02-27T22:02:22.161Z,23.90
2019-02-27T22:04:50.767Z,23.00
2019-02-27T22:07:19.370Z,23.77
2019-02-27T22:09:48.023Z,26.73
2019-02-27T22:12:16.702Z,22.13
2019-02-27T22:14:45.264Z,33.23
2019-02-27T22:17:13.897Z,23.63
2019-02-27T22:20:01.958Z,27.10
2019-02-27T22:22:30.537Z,24.57
2019-02-27T22:24:59.141Z,22.57
2019-02-27T22:27:27.788Z,22.97
2019-02-27T22:33:23.950Z,26.90
2019-02-27T22:35:52.543Z,28.33
2019-02-27T22:38:25.567Z,22.20
2019-02-27T22:40:51.871Z,25.47
2019-02-27T22:43:21.989Z,22.80
2019-02-27T22:45:50.858Z,36.63
2019-02-27T22:48:19.534Z,23.50
2019-02-27T22:50:48.271Z,24.00
2019-02-27T22:53:16.907Z,27.70
2019-02-27T22:55:45.636Z,27.40
2019-02-27T22:58:14.296Z,22.60
2019-02-27T23:01:22.751Z,24.27
2019-02-27T23:04:31.289Z,22.20
2019-02-27T23:06:59.961Z,26.60
2019-02-27T23:10:08.930Z,24.50
2019-02-27T23:12:39.494Z,22.00
2019-02-27T23:15:47.560Z,29.30
2019-02-27T23:18:56.057Z,28.60
2019-02-27T23:21:26.617Z,32.77
2019-02-27T23:23:55.039Z,22.43
2019-02-27T23:26:23.576Z,25.23
2019-02-27T23:28:52.166Z,23.47
2019-02-27T23:31:23.428Z,26.40
2019-02-27T23:33:51.433Z,28.00
2019-02-27T23:36:22.075Z,22.63
2019-02-27T23:38:50.547Z,26.10
2019-02-27T23:41:22.568Z,19.33
2019-02-27T23:43:49.368Z,29.47
2019-02-27T23:46:18.594Z,24.33
2019-02-27T23:48:48.508Z,23.97
2019-02-27T23:51:17.168Z,30.73
2019-02-27T23:53:45.824Z,20.30
2019-02-27T23:56:19.344Z,21.10
2019-02-27T23:58:44.998Z,33.40
